sensor_id;sensor_type;location;lat;lon;timestamp;temperature;humidity
81202;DHT22;71068;47.662;-2.750;2023-07-31T00:02:02;20.20;78.60
81202;DHT22;71068;47.662;-2.750;2023-07-31T00:04:29;20.20;78.50
81202;DHT22;71068;47.662;-2.750;2023-07-31T00:06:56;20.20;78.50
81202;DHT22;71068;47.662;-2.750;2023-07-31T00:09:24;20.30;78.50
81202;DHT22;71068;47.662;-2.750;2023-07-31T00:11:50;20.30;78.40
81202;DHT22;71068;47.662;-2.750;2023-07-31T00:14:17;20.30;78.40
81202;DHT22;71068;47.662;-2.750;2023-07-31T00:16:44;20.30;78.80
81202;DHT22;71068;47.662;-2.750;2023-07-31T00:19:09;20.10;79.50
81202;DHT22;71068;47.662;-2.750;2023-07-31T00:21:35;20.10;79.20
81202;DHT22;71068;47.662;-2.750;2023-07-31T00:24:01;20.10;79.40
81202;DHT22;71068;47.662;-2.750;2023-07-31T00:26:28;20.10;79.20
81202;DHT22;71068;47.662;-2.750;2023-07-31T00:28:54;20.10;79.30
81202;DHT22;71068;47.662;-2.750;2023-07-31T00:31:20;20.20;79.00
81202;DHT22;71068;47.662;-2.750;2023-07-31T00:33:46;20.30;79.10
81202;DHT22;71068;47.662;-2.750;2023-07-31T00:36:14;19.90;80.50
81202;DHT22;71068;47.662;-2.750;2023-07-31T00:38:40;20.10;80.20
81202;DHT22;71068;47.662;-2.750;2023-07-31T00:41:06;20.10;79.50
81202;DHT22;71068;47.662;-2.750;2023-07-31T00:43:32;20.00;79.60
81202;DHT22;71068;47.662;-2.750;2023-07-31T00:45:58;20.20;79.40
81202;DHT22;71068;47.662;-2.750;2023-07-31T00:48:24;20.10;79.30
81202;DHT22;71068;47.662;-2.750;2023-07-31T00:50:51;20.10;79.60
81202;DHT22;71068;47.662;-2.750;2023-07-31T00:57:01;20.20;79.20
81202;DHT22;71068;47.662;-2.750;2023-07-31T00:59:29;20.10;79.20
81202;DHT22;71068;47.662;-2.750;2023-07-31T01:01:55;20.10;79.40
81202;DHT22;71068;47.662;-2.750;2023-07-31T01:04:22;20.00;80.20
81202;DHT22;71068;47.662;-2.750;2023-07-31T01:07:27;20.00;80.10
81202;DHT22;71068;47.662;-2.750;2023-07-31T01:12:49;20.00;80.50
81202;DHT22;71068;47.662;-2.750;2023-07-31T01:15:18;19.90;80.60
81202;DHT22;71068;47.662;-2.750;2023-07-31T01:17:45;20.10;80.10
81202;DHT22;71068;47.662;-2.750;2023-07-31T01:20:21;20.20;79.90
81202;DHT22;71068;47.662;-2.750;2023-07-31T01:31:11;19.90;80.50
81202;DHT22;71068;47.662;-2.750;2023-07-31T01:33:39;20.10;80.50
81202;DHT22;71068;47.662;-2.750;2023-07-31T01:36:07;20.10;80.60
81202;DHT22;71068;47.662;-2.750;2023-07-31T01:38:34;20.10;80.40
81202;DHT22;71068;47.662;-2.750;2023-07-31T01:41:00;20.00;81.10
81202;DHT22;71068;47.662;-2.750;2023-07-31T01:43:26;20.00;81.10
81202;DHT22;71068;47.662;-2.750;2023-07-31T01:45:52;20.20;80.80
81202;DHT22;71068;47.662;-2.750;2023-07-31T01:48:20;20.20;81.10
81202;DHT22;71068;47.662;-2.750;2023-07-31T01:50:45;20.10;80.70
81202;DHT22;71068;47.662;-2.750;2023-07-31T01:53:11;20.20;80.40
81202;DHT22;71068;47.662;-2.750;2023-07-31T01:55:38;20.30;80.30
81202;DHT22;71068;47.662;-2.750;2023-07-31T01:58:04;20.10;81.10
81202;DHT22;71068;47.662;-2.750;2023-07-31T02:00:30;20.10;80.70
81202;DHT22;71068;47.662;-2.750;2023-07-31T02:02:56;20.20;80.50
81202;DHT22;71068;47.662;-2.750;2023-07-31T02:05:22;20.20;80.60
81202;DHT22;71068;47.662;-2.750;2023-07-31T02:07:48;20.20;80.50
81202;DHT22;71068;47.662;-2.750;2023-07-31T02:10:14;20.00;81.60
81202;DHT22;71068;47.662;-2.750;2023-07-31T02:12:40;19.80;82.20
81202;DHT22;71068;47.662;-2.750;2023-07-31T02:15:06;19.60;82.10
81202;DHT22;71068;47.662;-2.750;2023-07-31T02:17:33;19.90;81.50
81202;DHT22;71068;47.662;-2.750;2023-07-31T02:19:59;19.80;82.10
81202;DHT22;71068;47.662;-2.750;2023-07-31T02:22:27;20.00;81.30
81202;DHT22;71068;47.662;-2.750;2023-07-31T02:24:53;20.00;81.20
81202;DHT22;71068;47.662;-2.750;2023-07-31T02:27:18;20.10;80.80
81202;DHT22;71068;47.662;-2.750;2023-07-31T02:29:44;20.00;81.20
81202;DHT22;71068;47.662;-2.750;2023-07-31T02:32:11;20.20;80.80
81202;DHT22;71068;47.662;-2.750;2023-07-31T02:34:37;20.10;80.70
81202;DHT22;71068;47.662;-2.750;2023-07-31T02:37:05;20.10;80.50
81202;DHT22;71068;47.662;-2.750;2023-07-31T02:39:31;20.20;80.80
81202;DHT22;71068;47.662;-2.750;2023-07-31T02:41:57;19.90;81.50
81202;DHT22;71068;47.662;-2.750;2023-07-31T02:44:23;20.10;81.10
81202;DHT22;71068;47.662;-2.750;2023-07-31T02:46:49;20.00;81.70
81202;DHT22;71068;47.662;-2.750;2023-07-31T02:49:16;20.10;81.30
81202;DHT22;71068;47.662;-2.750;2023-07-31T02:51:42;20.20;80.90
81202;DHT22;71068;47.662;-2.750;2023-07-31T02:54:08;20.20;81.10
81202;DHT22;71068;47.662;-2.750;2023-07-31T02:56:36;20.30;80.80
81202;DHT22;71068;47.662;-2.750;2023-07-31T02:59:02;19.90;82.10
81202;DHT22;71068;47.662;-2.750;2023-07-31T03:01:28;19.70;82.80
81202;DHT22;71068;47.662;-2.750;2023-07-31T03:03:54;20.10;81.80
81202;DHT22;71068;47.662;-2.750;2023-07-31T03:06:20;20.00;82.00
81202;DHT22;71068;47.662;-2.750;2023-07-31T03:08:46;20.00;81.70
81202;DHT22;71068;47.662;-2.750;2023-07-31T03:11:14;20.00;82.20
81202;DHT22;71068;47.662;-2.750;2023-07-31T03:13:41;20.10;81.80
81202;DHT22;71068;47.662;-2.750;2023-07-31T03:16:07;20.00;82.20
81202;DHT22;71068;47.662;-2.750;2023-07-31T03:18:33;19.60;83.40
81202;DHT22;71068;47.662;-2.750;2023-07-31T03:21:04;19.80;82.70
81202;DHT22;71068;47.662;-2.750;2023-07-31T03:23:30;20.10;82.00
81202;DHT22;71068;47.662;-2.750;2023-07-31T03:26:02;19.90;82.60
81202;DHT22;71068;47.662;-2.750;2023-07-31T03:28:37;20.10;82.10
81202;DHT22;71068;47.662;-2.750;2023-07-31T03:31:03;20.20;81.70
81202;DHT22;71068;47.662;-2.750;2023-07-31T03:33:30;20.00;82.20
81202;DHT22;71068;47.662;-2.750;2023-07-31T03:35:56;20.00;82.60
81202;DHT22;71068;47.662;-2.750;2023-07-31T03:38:22;20.00;82.80
81202;DHT22;71068;47.662;-2.750;2023-07-31T03:40:50;20.00;82.70
81202;DHT22;71068;47.662;-2.750;2023-07-31T03:43:23;20.30;81.90
81202;DHT22;71068;47.662;-2.750;2023-07-31T03:45:50;20.20;81.90
81202;DHT22;71068;47.662;-2.750;2023-07-31T03:48:18;20.30;81.60
81202;DHT22;71068;47.662;-2.750;2023-07-31T03:50:44;20.20;81.80
81202;DHT22;71068;47.662;-2.750;2023-07-31T03:53:16;20.30;81.80
81202;DHT22;71068;47.662;-2.750;2023-07-31T03:55:42;20.30;81.70
81202;DHT22;71068;47.662;-2.750;2023-07-31T03:58:14;20.30;81.90
81202;DHT22;71068;47.662;-2.750;2023-07-31T04:00:40;20.10;82.70
81202;DHT22;71068;47.662;-2.750;2023-07-31T04:03:08;20.00;83.00
81202;DHT22;71068;47.662;-2.750;2023-07-31T04:05:38;20.10;83.00
81202;DHT22;71068;47.662;-2.750;2023-07-31T04:08:07;20.20;82.60
81202;DHT22;71068;47.662;-2.750;2023-07-31T04:10:35;20.20;82.10
81202;DHT22;71068;47.662;-2.750;2023-07-31T04:13:02;20.30;82.10
81202;DHT22;71068;47.662;-2.750;2023-07-31T04:15:27;20.10;82.80
81202;DHT22;71068;47.662;-2.750;2023-07-31T04:17:53;20.10;82.30
81202;DHT22;71068;47.662;-2.750;2023-07-31T04:20:22;20.20;82.00
81202;DHT22;71068;47.662;-2.750;2023-07-31T04:22:48;20.20;82.20
81202;DHT22;71068;47.662;-2.750;2023-07-31T04:25:15;20.10;82.40
81202;DHT22;71068;47.662;-2.750;2023-07-31T04:27:42;19.90;83.20
81202;DHT22;71068;47.662;-2.750;2023-07-31T04:30:15;20.00;82.90
81202;DHT22;71068;47.662;-2.750;2023-07-31T04:32:43;20.00;82.90
81202;DHT22;71068;47.662;-2.750;2023-07-31T04:35:08;19.90;83.20
81202;DHT22;71068;47.662;-2.750;2023-07-31T04:37:36;20.00;82.50
81202;DHT22;71068;47.662;-2.750;2023-07-31T04:40:12;20.00;82.70
81202;DHT22;71068;47.662;-2.750;2023-07-31T04:42:38;20.10;82.20
81202;DHT22;71068;47.662;-2.750;2023-07-31T04:45:05;20.00;82.60
81202;DHT22;71068;47.662;-2.750;2023-07-31T04:47:32;20.00;82.70
81202;DHT22;71068;47.662;-2.750;2023-07-31T04:49:58;20.20;82.10
81202;DHT22;71068;47.662;-2.750;2023-07-31T04:52:24;20.10;82.40
81202;DHT22;71068;47.662;-2.750;2023-07-31T04:54:50;20.20;81.80
81202;DHT22;71068;47.662;-2.750;2023-07-31T04:57:16;20.10;82.70
81202;DHT22;71068;47.662;-2.750;2023-07-31T04:59:42;20.20;82.10
81202;DHT22;71068;47.662;-2.750;2023-07-31T05:02:08;20.20;82.10
81202;DHT22;71068;47.662;-2.750;2023-07-31T05:04:34;20.20;82.10
81202;DHT22;71068;47.662;-2.750;2023-07-31T05:07:00;20.40;81.70
81202;DHT22;71068;47.662;-2.750;2023-07-31T05:09:26;20.20;81.50
81202;DHT22;71068;47.662;-2.750;2023-07-31T05:11:52;20.10;82.20
81202;DHT22;71068;47.662;-2.750;2023-07-31T05:14:19;20.20;81.90
81202;DHT22;71068;47.662;-2.750;2023-07-31T05:16:46;19.70;83.70
81202;DHT22;71068;47.662;-2.750;2023-07-31T05:19:12;19.70;83.90
81202;DHT22;71068;47.662;-2.750;2023-07-31T05:21:38;19.80;83.80
81202;DHT22;71068;47.662;-2.750;2023-07-31T05:24:04;20.10;82.80
81202;DHT22;71068;47.662;-2.750;2023-07-31T05:26:30;20.00;83.00
81202;DHT22;71068;47.662;-2.750;2023-07-31T05:29:02;20.00;83.30
81202;DHT22;71068;47.662;-2.750;2023-07-31T05:31:28;19.90;83.50
81202;DHT22;71068;47.662;-2.750;2023-07-31T05:33:54;20.10;83.10
81202;DHT22;71068;47.662;-2.750;2023-07-31T05:36:22;20.30;82.60
81202;DHT22;71068;47.662;-2.750;2023-07-31T05:38:50;20.20;82.50
81202;DHT22;71068;47.662;-2.750;2023-07-31T05:41:16;19.90;84.10
81202;DHT22;71068;47.662;-2.750;2023-07-31T05:43:41;19.90;83.40
81202;DHT22;71068;47.662;-2.750;2023-07-31T05:46:09;20.10;82.80
81202;DHT22;71068;47.662;-2.750;2023-07-31T05:48:36;20.30;82.40
81202;DHT22;71068;47.662;-2.750;2023-07-31T05:51:02;20.10;83.00
81202;DHT22;71068;47.662;-2.750;2023-07-31T05:53:28;20.10;83.50
81202;DHT22;71068;47.662;-2.750;2023-07-31T05:55:54;20.10;83.40
81202;DHT22;71068;47.662;-2.750;2023-07-31T05:58:21;20.20;82.90
81202;DHT22;71068;47.662;-2.750;2023-07-31T06:00:47;20.40;82.20
81202;DHT22;71068;47.662;-2.750;2023-07-31T06:03:14;20.40;81.70
81202;DHT22;71068;47.662;-2.750;2023-07-31T06:05:40;19.90;83.50
81202;DHT22;71068;47.662;-2.750;2023-07-31T06:08:06;20.20;83.20
81202;DHT22;71068;47.662;-2.750;2023-07-31T06:10:32;20.20;82.90
81202;DHT22;71068;47.662;-2.750;2023-07-31T06:12:59;20.00;83.40
81202;DHT22;71068;47.662;-2.750;2023-07-31T06:15:25;20.10;83.60
81202;DHT22;71068;47.662;-2.750;2023-07-31T06:17:51;19.90;83.80
81202;DHT22;71068;47.662;-2.750;2023-07-31T06:20:19;20.10;83.00
81202;DHT22;71068;47.662;-2.750;2023-07-31T06:22:45;20.40;82.50
81202;DHT22;71068;47.662;-2.750;2023-07-31T06:25:11;20.20;83.20
81202;DHT22;71068;47.662;-2.750;2023-07-31T06:27:37;19.80;85.20
81202;DHT22;71068;47.662;-2.750;2023-07-31T06:30:04;19.80;86.20
81202;DHT22;71068;47.662;-2.750;2023-07-31T06:32:30;19.90;85.30
81202;DHT22;71068;47.662;-2.750;2023-07-31T06:34:56;19.80;85.90
81202;DHT22;71068;47.662;-2.750;2023-07-31T06:37:22;19.80;86.20
81202;DHT22;71068;47.662;-2.750;2023-07-31T06:39:48;19.70;85.50
81202;DHT22;71068;47.662;-2.750;2023-07-31T06:42:14;19.60;86.40
81202;DHT22;71068;47.662;-2.750;2023-07-31T06:44:40;19.90;85.30
81202;DHT22;71068;47.662;-2.750;2023-07-31T06:47:06;20.00;85.00
81202;DHT22;71068;47.662;-2.750;2023-07-31T06:49:32;20.00;85.00
81202;DHT22;71068;47.662;-2.750;2023-07-31T06:51:58;19.80;85.40
81202;DHT22;71068;47.662;-2.750;2023-07-31T06:54:23;19.80;85.80
81202;DHT22;71068;47.662;-2.750;2023-07-31T06:56:49;19.90;85.20
81202;DHT22;71068;47.662;-2.750;2023-07-31T06:59:15;20.10;84.50
81202;DHT22;71068;47.662;-2.750;2023-07-31T07:01:41;20.10;85.30
81202;DHT22;71068;47.662;-2.750;2023-07-31T07:04:16;19.60;87.00
81202;DHT22;71068;47.662;-2.750;2023-07-31T07:06:42;19.60;87.40
81202;DHT22;71068;47.662;-2.750;2023-07-31T07:09:08;19.50;87.50
81202;DHT22;71068;47.662;-2.750;2023-07-31T07:11:34;19.60;87.00
81202;DHT22;71068;47.662;-2.750;2023-07-31T07:14:00;19.50;87.90
81202;DHT22;71068;47.662;-2.750;2023-07-31T07:16:28;19.50;87.60
81202;DHT22;71068;47.662;-2.750;2023-07-31T07:18:54;19.70;86.60
81202;DHT22;71068;47.662;-2.750;2023-07-31T07:21:21;19.50;88.40
81202;DHT22;71068;47.662;-2.750;2023-07-31T07:23:48;19.70;87.20
81202;DHT22;71068;47.662;-2.750;2023-07-31T07:26:14;19.70;87.70
81202;DHT22;71068;47.662;-2.750;2023-07-31T07:28:40;19.70;87.20
81202;DHT22;71068;47.662;-2.750;2023-07-31T07:31:06;19.60;88.90
81202;DHT22;71068;47.662;-2.750;2023-07-31T07:33:37;19.80;88.70
81202;DHT22;71068;47.662;-2.750;2023-07-31T07:36:03;19.70;88.30
81202;DHT22;71068;47.662;-2.750;2023-07-31T07:38:32;19.90;87.30
81202;DHT22;71068;47.662;-2.750;2023-07-31T07:40:58;20.00;86.70
81202;DHT22;71068;47.662;-2.750;2023-07-31T07:43:24;20.00;86.10
81202;DHT22;71068;47.662;-2.750;2023-07-31T07:48:48;20.10;86.10
81202;DHT22;71068;47.662;-2.750;2023-07-31T07:51:25;20.00;86.00
81202;DHT22;71068;47.662;-2.750;2023-07-31T07:53:51;20.00;86.60
81202;DHT22;71068;47.662;-2.750;2023-07-31T07:56:19;19.60;88.60
81202;DHT22;71068;47.662;-2.750;2023-07-31T07:58:48;19.70;87.70
81202;DHT22;71068;47.662;-2.750;2023-07-31T08:01:22;19.90;86.60
81202;DHT22;71068;47.662;-2.750;2023-07-31T08:03:48;19.90;87.10
81202;DHT22;71068;47.662;-2.750;2023-07-31T08:06:14;19.60;87.70
81202;DHT22;71068;47.662;-2.750;2023-07-31T08:08:40;19.70;88.10
81202;DHT22;71068;47.662;-2.750;2023-07-31T08:11:06;20.00;86.70
81202;DHT22;71068;47.662;-2.750;2023-07-31T08:13:33;20.00;86.70
81202;DHT22;71068;47.662;-2.750;2023-07-31T08:15:59;20.20;85.70
81202;DHT22;71068;47.662;-2.750;2023-07-31T08:18:26;20.20;86.00
81202;DHT22;71068;47.662;-2.750;2023-07-31T08:21:02;20.00;86.50
81202;DHT22;71068;47.662;-2.750;2023-07-31T08:23:28;20.10;86.20
81202;DHT22;71068;47.662;-2.750;2023-07-31T08:25:58;20.30;85.70
81202;DHT22;71068;47.662;-2.750;2023-07-31T08:28:24;20.40;85.60
81202;DHT22;71068;47.662;-2.750;2023-07-31T08:30:52;20.40;85.40
81202;DHT22;71068;47.662;-2.750;2023-07-31T08:33:21;20.50;85.20
81202;DHT22;71068;47.662;-2.750;2023-07-31T08:35:48;20.60;84.30
81202;DHT22;71068;47.662;-2.750;2023-07-31T08:38:14;20.50;85.00
81202;DHT22;71068;47.662;-2.750;2023-07-31T08:40:40;20.40;85.70
81202;DHT22;71068;47.662;-2.750;2023-07-31T08:43:08;20.70;84.10
81202;DHT22;71068;47.662;-2.750;2023-07-31T08:45:34;20.60;84.40
81202;DHT22;71068;47.662;-2.750;2023-07-31T08:48:01;20.60;84.50
81202;DHT22;71068;47.662;-2.750;2023-07-31T08:50:28;20.40;85.70
81202;DHT22;71068;47.662;-2.750;2023-07-31T08:52:55;20.50;84.70
81202;DHT22;71068;47.662;-2.750;2023-07-31T08:55:22;20.50;85.10
81202;DHT22;71068;47.662;-2.750;2023-07-31T08:57:52;20.00;86.40
81202;DHT22;71068;47.662;-2.750;2023-07-31T09:00:23;20.20;85.60
81202;DHT22;71068;47.662;-2.750;2023-07-31T09:03:09;20.50;84.80
81202;DHT22;71068;47.662;-2.750;2023-07-31T09:05:41;20.50;84.70
81202;DHT22;71068;47.662;-2.750;2023-07-31T09:08:10;20.30;85.50
81202;DHT22;71068;47.662;-2.750;2023-07-31T09:10:43;20.30;85.20
81202;DHT22;71068;47.662;-2.750;2023-07-31T09:13:14;20.70;84.10
81202;DHT22;71068;47.662;-2.750;2023-07-31T09:15:43;20.60;84.30
81202;DHT22;71068;47.662;-2.750;2023-07-31T09:18:11;20.80;84.10
81202;DHT22;71068;47.662;-2.750;2023-07-31T09:20:37;20.90;83.50
81202;DHT22;71068;47.662;-2.750;2023-07-31T09:23:13;20.90;84.10
81202;DHT22;71068;47.662;-2.750;2023-07-31T09:25:44;20.70;83.90
81202;DHT22;71068;47.662;-2.750;2023-07-31T09:28:11;21.00;83.70
81202;DHT22;71068;47.662;-2.750;2023-07-31T09:30:51;21.00;84.10
81202;DHT22;71068;47.662;-2.750;2023-07-31T09:33:19;20.80;84.40
81202;DHT22;71068;47.662;-2.750;2023-07-31T09:35:46;20.60;85.10
81202;DHT22;71068;47.662;-2.750;2023-07-31T09:38:16;20.70;85.20
81202;DHT22;71068;47.662;-2.750;2023-07-31T09:40:46;20.70;85.10
81202;DHT22;71068;47.662;-2.750;2023-07-31T09:43:20;20.40;86.60
81202;DHT22;71068;47.662;-2.750;2023-07-31T09:45:47;20.70;85.00
81202;DHT22;71068;47.662;-2.750;2023-07-31T09:48:16;20.70;85.00
81202;DHT22;71068;47.662;-2.750;2023-07-31T09:50:48;20.60;85.60
81202;DHT22;71068;47.662;-2.750;2023-07-31T09:53:19;20.40;86.50
81202;DHT22;71068;47.662;-2.750;2023-07-31T09:55:49;20.60;86.00
81202;DHT22;71068;47.662;-2.750;2023-07-31T09:58:18;20.70;85.80
81202;DHT22;71068;47.662;-2.750;2023-07-31T10:00:48;20.60;86.30
81202;DHT22;71068;47.662;-2.750;2023-07-31T10:03:17;20.10;88.10
81202;DHT22;71068;47.662;-2.750;2023-07-31T10:05:50;20.30;87.30
81202;DHT22;71068;47.662;-2.750;2023-07-31T10:08:23;20.40;86.50
81202;DHT22;71068;47.662;-2.750;2023-07-31T10:10:59;20.40;86.50
81202;DHT22;71068;47.662;-2.750;2023-07-31T10:13:27;20.50;86.50
81202;DHT22;71068;47.662;-2.750;2023-07-31T10:15:59;20.50;87.00
81202;DHT22;71068;47.662;-2.750;2023-07-31T10:18:30;20.50;86.90
81202;DHT22;71068;47.662;-2.750;2023-07-31T10:20:57;20.80;86.70
81202;DHT22;71068;47.662;-2.750;2023-07-31T10:23:24;20.40;89.30
81202;DHT22;71068;47.662;-2.750;2023-07-31T10:25:57;20.60;87.80
81202;DHT22;71068;47.662;-2.750;2023-07-31T10:28:24;20.40;87.60
81202;DHT22;71068;47.662;-2.750;2023-07-31T10:30:55;20.50;87.10
81202;DHT22;71068;47.662;-2.750;2023-07-31T10:33:21;20.50;87.70
81202;DHT22;71068;47.662;-2.750;2023-07-31T10:35:51;20.20;88.20
81202;DHT22;71068;47.662;-2.750;2023-07-31T10:39:03;20.40;88.20
81202;DHT22;71068;47.662;-2.750;2023-07-31T10:41:30;20.30;88.50
81202;DHT22;71068;47.662;-2.750;2023-07-31T10:44:01;20.10;88.80
81202;DHT22;71068;47.662;-2.750;2023-07-31T10:46:32;20.40;88.30
81202;DHT22;71068;47.662;-2.750;2023-07-31T10:49:03;20.70;87.40
81202;DHT22;71068;47.662;-2.750;2023-07-31T10:51:43;20.70;87.00
81202;DHT22;71068;47.662;-2.750;2023-07-31T10:54:16;20.70;86.80
81202;DHT22;71068;47.662;-2.750;2023-07-31T10:56:50;20.30;88.30
81202;DHT22;71068;47.662;-2.750;2023-07-31T10:59:18;20.40;88.70
81202;DHT22;71068;47.662;-2.750;2023-07-31T11:01:54;20.10;89.60
81202;DHT22;71068;47.662;-2.750;2023-07-31T11:04:25;20.30;89.80
81202;DHT22;71068;47.662;-2.750;2023-07-31T11:06:59;20.00;90.30
81202;DHT22;71068;47.662;-2.750;2023-07-31T11:09:33;20.10;90.20
81202;DHT22;71068;47.662;-2.750;2023-07-31T11:12:00;20.20;90.20
81202;DHT22;71068;47.662;-2.750;2023-07-31T11:14:28;20.40;89.30
81202;DHT22;71068;47.662;-2.750;2023-07-31T11:16:55;20.20;88.50
81202;DHT22;71068;47.662;-2.750;2023-07-31T11:19:24;20.20;89.60
81202;DHT22;71068;47.662;-2.750;2023-07-31T11:21:53;20.20;89.80
81202;DHT22;71068;47.662;-2.750;2023-07-31T11:24:20;20.00;90.20
81202;DHT22;71068;47.662;-2.750;2023-07-31T11:26:55;20.00;91.10
81202;DHT22;71068;47.662;-2.750;2023-07-31T11:29:21;20.00;93.00
81202;DHT22;71068;47.662;-2.750;2023-07-31T11:31:54;20.10;90.60
81202;DHT22;71068;47.662;-2.750;2023-07-31T11:34:22;20.30;90.40
81202;DHT22;71068;47.662;-2.750;2023-07-31T11:36:56;20.00;91.60
81202;DHT22;71068;47.662;-2.750;2023-07-31T11:39:22;20.20;90.40
81202;DHT22;71068;47.662;-2.750;2023-07-31T11:41:50;20.30;90.50
81202;DHT22;71068;47.662;-2.750;2023-07-31T11:44:16;20.30;90.00
81202;DHT22;71068;47.662;-2.750;2023-07-31T11:46:42;20.10;90.50
81202;DHT22;71068;47.662;-2.750;2023-07-31T11:49:08;20.00;91.10
81202;DHT22;71068;47.662;-2.750;2023-07-31T11:51:34;20.10;90.30
81202;DHT22;71068;47.662;-2.750;2023-07-31T11:54:01;20.10;91.00
81202;DHT22;71068;47.662;-2.750;2023-07-31T11:56:28;20.00;91.40
81202;DHT22;71068;47.662;-2.750;2023-07-31T11:58:59;19.70;91.10
81202;DHT22;71068;47.662;-2.750;2023-07-31T12:01:32;20.00;91.40
81202;DHT22;71068;47.662;-2.750;2023-07-31T12:04:00;19.90;91.60
81202;DHT22;71068;47.662;-2.750;2023-07-31T12:06:37;20.10;91.00
81202;DHT22;71068;47.662;-2.750;2023-07-31T12:09:05;19.70;91.40
81202;DHT22;71068;47.662;-2.750;2023-07-31T12:11:43;19.90;91.50
81202;DHT22;71068;47.662;-2.750;2023-07-31T12:14:27;20.10;90.80
81202;DHT22;71068;47.662;-2.750;2023-07-31T12:17:00;20.00;91.40
81202;DHT22;71068;47.662;-2.750;2023-07-31T12:19:29;20.10;90.80
81202;DHT22;71068;47.662;-2.750;2023-07-31T12:22:15;20.20;90.30
81202;DHT22;71068;47.662;-2.750;2023-07-31T12:24:43;20.20;90.20
81202;DHT22;71068;47.662;-2.750;2023-07-31T12:27:14;20.30;89.30
81202;DHT22;71068;47.662;-2.750;2023-07-31T12:29:42;20.30;89.00
81202;DHT22;71068;47.662;-2.750;2023-07-31T12:32:23;20.30;89.20
81202;DHT22;71068;47.662;-2.750;2023-07-31T12:34:51;20.30;88.90
81202;DHT22;71068;47.662;-2.750;2023-07-31T12:37:17;20.20;89.90
81202;DHT22;71068;47.662;-2.750;2023-07-31T12:39:43;20.20;90.20
81202;DHT22;71068;47.662;-2.750;2023-07-31T12:42:17;20.20;90.00
81202;DHT22;71068;47.662;-2.750;2023-07-31T12:44:45;20.20;89.90
81202;DHT22;71068;47.662;-2.750;2023-07-31T12:47:10;20.30;89.40
81202;DHT22;71068;47.662;-2.750;2023-07-31T12:49:36;20.10;90.00
81202;DHT22;71068;47.662;-2.750;2023-07-31T12:52:05;20.10;89.70
81202;DHT22;71068;47.662;-2.750;2023-07-31T12:54:35;20.10;90.20
81202;DHT22;71068;47.662;-2.750;2023-07-31T12:57:01;20.20;90.00
81202;DHT22;71068;47.662;-2.750;2023-07-31T12:59:27;20.30;88.90
81202;DHT22;71068;47.662;-2.750;2023-07-31T13:01:52;20.30;89.50
81202;DHT22;71068;47.662;-2.750;2023-07-31T13:04:18;20.30;88.80
81202;DHT22;71068;47.662;-2.750;2023-07-31T13:06:44;20.40;88.70
81202;DHT22;71068;47.662;-2.750;2023-07-31T13:09:12;20.40;88.60
81202;DHT22;71068;47.662;-2.750;2023-07-31T13:11:39;20.70;87.60
81202;DHT22;71068;47.662;-2.750;2023-07-31T13:14:05;20.40;88.10
81202;DHT22;71068;47.662;-2.750;2023-07-31T13:16:30;20.10;88.20
81202;DHT22;71068;47.662;-2.750;2023-07-31T13:18:56;20.40;88.20
81202;DHT22;71068;47.662;-2.750;2023-07-31T13:21:22;20.40;88.20
81202;DHT22;71068;47.662;-2.750;2023-07-31T13:23:51;20.60;87.60
81202;DHT22;71068;47.662;-2.750;2023-07-31T13:26:24;20.60;87.30
81202;DHT22;71068;47.662;-2.750;2023-07-31T13:28:50;20.60;88.20
81202;DHT22;71068;47.662;-2.750;2023-07-31T13:31:16;20.50;88.20
81202;DHT22;71068;47.662;-2.750;2023-07-31T13:33:44;20.30;88.30
81202;DHT22;71068;47.662;-2.750;2023-07-31T13:36:10;20.40;88.90
81202;DHT22;71068;47.662;-2.750;2023-07-31T13:38:39;20.40;88.40
81202;DHT22;71068;47.662;-2.750;2023-07-31T13:41:07;20.30;89.00
81202;DHT22;71068;47.662;-2.750;2023-07-31T13:43:33;20.40;88.50
81202;DHT22;71068;47.662;-2.750;2023-07-31T13:46:02;20.30;88.60
81202;DHT22;71068;47.662;-2.750;2023-07-31T13:48:34;20.00;89.10
81202;DHT22;71068;47.662;-2.750;2023-07-31T13:51:03;20.40;89.10
81202;DHT22;71068;47.662;-2.750;2023-07-31T13:53:29;20.20;89.60
81202;DHT22;71068;47.662;-2.750;2023-07-31T13:56:03;20.30;89.70
81202;DHT22;71068;47.662;-2.750;2023-07-31T13:58:29;20.30;89.40
81202;DHT22;71068;47.662;-2.750;2023-07-31T14:00:55;20.40;88.70
81202;DHT22;71068;47.662;-2.750;2023-07-31T14:03:30;20.10;90.10
81202;DHT22;71068;47.662;-2.750;2023-07-31T14:05:57;20.40;89.40
81202;DHT22;71068;47.662;-2.750;2023-07-31T14:08:25;20.50;88.80
81202;DHT22;71068;47.662;-2.750;2023-07-31T14:10:58;20.40;88.60
81202;DHT22;71068;47.662;-2.750;2023-07-31T14:13:24;20.20;90.40
81202;DHT22;71068;47.662;-2.750;2023-07-31T14:15:52;20.20;89.70
81202;DHT22;71068;47.662;-2.750;2023-07-31T14:18:18;20.20;89.80
81202;DHT22;71068;47.662;-2.750;2023-07-31T14:20:46;20.30;89.40
81202;DHT22;71068;47.662;-2.750;2023-07-31T14:23:12;20.30;89.70
81202;DHT22;71068;47.662;-2.750;2023-07-31T14:25:39;20.40;89.40
81202;DHT22;71068;47.662;-2.750;2023-07-31T14:28:05;20.50;89.00
81202;DHT22;71068;47.662;-2.750;2023-07-31T14:30:32;20.40;89.50
81202;DHT22;71068;47.662;-2.750;2023-07-31T14:32:58;20.40;89.30
81202;DHT22;71068;47.662;-2.750;2023-07-31T14:35:26;20.50;89.00
81202;DHT22;71068;47.662;-2.750;2023-07-31T14:37:55;20.60;88.90
81202;DHT22;71068;47.662;-2.750;2023-07-31T14:40:24;20.40;89.60
81202;DHT22;71068;47.662;-2.750;2023-07-31T14:42:53;20.60;88.90
81202;DHT22;71068;47.662;-2.750;2023-07-31T14:45:21;20.40;89.50
81202;DHT22;71068;47.662;-2.750;2023-07-31T14:47:47;20.40;88.90
81202;DHT22;71068;47.662;-2.750;2023-07-31T14:50:13;20.70;88.80
81202;DHT22;71068;47.662;-2.750;2023-07-31T14:52:44;20.40;88.60
81202;DHT22;71068;47.662;-2.750;2023-07-31T14:55:15;20.60;88.70
81202;DHT22;71068;47.662;-2.750;2023-07-31T14:58:05;20.60;88.70
81202;DHT22;71068;47.662;-2.750;2023-07-31T15:00:41;20.60;89.00
81202;DHT22;71068;47.662;-2.750;2023-07-31T15:03:07;20.60;88.50
81202;DHT22;71068;47.662;-2.750;2023-07-31T15:05:34;20.60;88.60
81202;DHT22;71068;47.662;-2.750;2023-07-31T15:08:07;20.70;87.90
81202;DHT22;71068;47.662;-2.750;2023-07-31T15:10:33;20.90;87.90
81202;DHT22;71068;47.662;-2.750;2023-07-31T15:13:00;20.90;87.80
81202;DHT22;71068;47.662;-2.750;2023-07-31T15:18:08;20.80;88.30
81202;DHT22;71068;47.662;-2.750;2023-07-31T15:20:35;21.00;87.80
81202;DHT22;71068;47.662;-2.750;2023-07-31T15:23:01;20.50;89.10
81202;DHT22;71068;47.662;-2.750;2023-07-31T15:25:43;20.60;88.40
81202;DHT22;71068;47.662;-2.750;2023-07-31T15:28:09;20.80;87.90
81202;DHT22;71068;47.662;-2.750;2023-07-31T15:30:37;20.90;87.50
81202;DHT22;71068;47.662;-2.750;2023-07-31T15:33:03;20.70;87.80
81202;DHT22;71068;47.662;-2.750;2023-07-31T15:35:34;20.80;88.00
81202;DHT22;71068;47.662;-2.750;2023-07-31T15:38:00;21.00;87.10
81202;DHT22;71068;47.662;-2.750;2023-07-31T15:40:27;20.60;88.60
81202;DHT22;71068;47.662;-2.750;2023-07-31T15:42:53;20.80;87.70